createdAt,value
2018-09-06T00:00:48.095Z,14.20
2018-09-06T00:01:48.073Z,14.22
2018-09-06T00:02:48.051Z,14.20
2018-09-06T00:03:48.025Z,14.20
2018-09-06T00:04:48.019Z,14.21
2018-09-06T00:05:47.981Z,14.22
2018-09-06T00:06:47.960Z,14.18
2018-09-06T00:07:47.935Z,14.12
2018-09-06T00:08:47.914Z,14.18
2018-09-06T00:09:47.890Z,14.18
2018-09-06T00:10:47.867Z,14.20
2018-09-06T00:11:47.844Z,14.22
2018-09-06T00:12:47.822Z,14.36
2018-09-06T00:13:47.799Z,14.25
2018-09-06T00:14:47.777Z,14.29
2018-09-06T00:15:47.753Z,14.40
2018-09-06T00:16:47.730Z,14.39
2018-09-06T00:17:47.707Z,14.43
2018-09-06T00:18:47.686Z,14.45
2018-09-06T00:19:47.661Z,14.36
2018-09-06T00:20:47.638Z,14.36
2018-09-06T00:21:47.619Z,14.21
2018-09-06T00:22:47.593Z,14.12
2018-09-06T00:23:47.569Z,14.07
2018-09-06T00:24:47.548Z,14.06
2018-09-06T00:25:47.524Z,14.06
2018-09-06T00:26:47.503Z,13.97
2018-09-06T00:27:47.480Z,13.96
2018-09-06T00:28:47.456Z,13.96
2018-09-06T00:29:47.436Z,13.92
2018-09-06T00:30:47.411Z,14.03
2018-09-06T00:31:47.389Z,13.92
2018-09-06T00:32:47.365Z,13.89
2018-09-06T00:33:47.344Z,13.77
2018-09-06T00:34:47.338Z,13.84
2018-09-06T00:35:47.297Z,13.71
2018-09-06T00:36:47.275Z,13.81
2018-09-06T00:37:47.250Z,13.78
2018-09-06T00:38:47.229Z,13.69
2018-09-06T00:39:47.204Z,13.71
2018-09-06T00:40:47.181Z,13.73
2018-09-06T00:41:47.159Z,13.69
2018-09-06T00:42:47.138Z,13.71
2018-09-06T00:43:47.114Z,13.71
2018-09-06T00:44:47.091Z,13.70
2018-09-06T00:45:47.068Z,13.79
2018-09-06T00:46:47.045Z,13.77
2018-09-06T00:47:47.022Z,13.77
2018-09-06T00:48:47.000Z,13.79
2018-09-06T00:49:46.975Z,13.70
2018-09-06T00:50:46.952Z,13.64
2018-09-06T00:51:46.929Z,13.64
2018-09-06T00:52:46.906Z,13.66
2018-09-06T00:53:46.884Z,13.66
2018-09-06T00:54:46.860Z,13.55
2018-09-06T00:55:46.838Z,13.63
2018-09-06T00:56:46.814Z,13.79
2018-09-06T00:57:46.792Z,13.89
2018-09-06T00:58:46.770Z,13.92
2018-09-06T00:59:46.747Z,14.00
2018-09-06T01:00:46.722Z,13.96
2018-09-06T01:01:46.703Z,13.96
2018-09-06T01:02:46.677Z,13.79
2018-09-06T01:03:46.655Z,13.78
2018-09-06T01:04:46.634Z,13.77
2018-09-06T01:05:46.608Z,13.78
2018-09-06T01:06:46.586Z,13.77
2018-09-06T01:07:46.563Z,13.75
2018-09-06T01:08:46.541Z,13.67
2018-09-06T01:09:46.519Z,13.70
2018-09-06T01:10:46.494Z,13.78
2018-09-06T01:11:46.471Z,13.81
2018-09-06T01:12:46.449Z,13.89
2018-09-06T01:13:46.425Z,13.81
2018-09-06T01:14:46.403Z,13.89
2018-09-06T01:15:46.380Z,13.82
2018-09-06T01:16:46.356Z,13.99
2018-09-06T01:17:46.336Z,13.96
2018-09-06T01:18:46.312Z,13.99
2018-09-06T01:19:46.288Z,14.07
2018-09-06T01:20:46.268Z,14.07
2018-09-06T01:21:46.248Z,14.07
2018-09-06T01:22:46.220Z,14.10
2018-09-06T01:23:46.194Z,14.09
2018-09-06T01:24:46.174Z,14.06
2018-09-06T01:25:46.149Z,14.06
2018-09-06T01:26:46.127Z,14.04
2018-09-06T01:27:46.104Z,14.03
2018-09-06T01:28:46.081Z,14.04
2018-09-06T01:29:46.056Z,14.04
2018-09-06T01:30:46.035Z,14.02
2018-09-06T01:31:46.011Z,14.06
2018-09-06T01:32:45.987Z,14.03
2018-09-06T01:33:45.964Z,13.92
2018-09-06T01:34:45.940Z,13.91
2018-09-06T01:35:45.917Z,13.84
2018-09-06T01:36:45.897Z,13.81
2018-09-06T01:37:45.872Z,13.81
2018-09-06T01:38:45.852Z,13.78
2018-09-06T01:39:45.826Z,13.89
2018-09-06T01:40:45.802Z,13.88
2018-09-06T01:41:45.779Z,13.81
2018-09-06T01:42:45.757Z,13.89
2018-09-06T01:43:45.733Z,13.91
2018-09-06T01:44:45.711Z,13.91
2018-09-06T01:45:45.686Z,13.92
2018-09-06T01:46:45.664Z,13.97
2018-09-06T01:47:45.640Z,13.96
2018-09-06T01:48:45.618Z,13.91
2018-09-06T01:49:45.594Z,14.03
2018-09-06T01:50:45.574Z,14.00
2018-09-06T01:51:45.547Z,13.95
2018-09-06T01:52:45.526Z,14.06
2018-09-06T01:53:45.502Z,13.99
2018-09-06T01:54:45.482Z,13.96
2018-09-06T01:55:45.457Z,13.96
2018-09-06T01:56:45.432Z,13.97
2018-09-06T01:57:45.408Z,14.04
2018-09-06T01:58:45.388Z,14.03
2018-09-06T01:59:45.366Z,13.96
2018-09-06T02:00:45.341Z,14.00
2018-09-06T02:01:45.318Z,14.02
2018-09-06T02:02:45.295Z,13.92
2018-09-06T02:03:45.269Z,13.96
2018-09-06T02:04:45.247Z,13.96
2018-09-06T02:05:45.226Z,13.92
2018-09-06T02:06:45.201Z,13.81
2018-09-06T02:07:45.177Z,13.91
2018-09-06T02:08:45.154Z,13.96
2018-09-06T02:09:45.132Z,13.96
2018-09-06T02:10:45.109Z,13.92
2018-09-06T02:11:45.084Z,13.88
2018-09-06T02:12:45.062Z,13.77
2018-09-06T02:13:45.039Z,13.73
2018-09-06T02:14:45.017Z,13.62
2018-09-06T02:15:44.992Z,13.60
2018-09-06T02:16:44.968Z,13.66
2018-09-06T02:17:44.945Z,13.54
2018-09-06T02:18:44.926Z,13.59
2018-09-06T02:19:44.897Z,13.60
2018-09-06T02:20:44.874Z,13.69
2018-09-06T02:21:44.852Z,13.57
2018-09-06T02:22:44.830Z,13.52
2018-09-06T02:23:44.806Z,13.52
2018-09-06T02:24:44.787Z,13.51
2018-09-06T02:25:44.761Z,13.54
2018-09-06T02:26:44.737Z,13.48
2018-09-06T02:27:44.715Z,13.44
2018-09-06T02:28:44.691Z,13.52
2018-09-06T02:29:44.668Z,13.60
2018-09-06T02:30:44.644Z,13.69
2018-09-06T02:31:44.621Z,13.79
2018-09-06T02:32:44.599Z,13.85
2018-09-06T02:33:44.575Z,13.84
2018-09-06T02:34:44.554Z,13.84
2018-09-06T02:35:44.528Z,13.87
2018-09-06T02:36:44.504Z,13.81
2018-09-06T02:37:44.481Z,13.97
2018-09-06T02:38:44.459Z,13.95
2018-09-06T02:39:44.434Z,13.96
2018-09-06T02:40:44.413Z,13.89
2018-09-06T02:41:44.390Z,13.97
2018-09-06T02:42:44.426Z,13.91
2018-09-06T02:43:44.342Z,13.89
2018-09-06T02:44:44.321Z,13.84
2018-09-06T02:45:44.295Z,13.84
2018-09-06T02:46:44.274Z,13.91
2018-09-06T02:47:44.250Z,13.91
2018-09-06T02:48:44.227Z,13.91
2018-09-06T02:49:44.205Z,13.96
2018-09-06T02:50:44.183Z,13.97
2018-09-06T02:51:44.158Z,14.06
2018-09-06T02:52:44.134Z,14.06
2018-09-06T02:53:44.123Z,14.06
2018-09-06T02:54:44.089Z,14.03
2018-09-06T02:55:44.066Z,14.00
2018-09-06T02:56:44.042Z,13.99
2018-09-06T02:57:44.019Z,13.92
2018-09-06T02:58:43.997Z,13.91
2018-09-06T02:59:43.972Z,13.99
2018-09-06T03:00:43.955Z,13.91
2018-09-06T03:01:43.930Z,13.99
2018-09-06T03:02:43.909Z,13.95
2018-09-06T03:03:43.881Z,13.88
2018-09-06T03:04:43.858Z,13.79
2018-09-06T03:05:43.838Z,13.70
2018-09-06T03:06:43.811Z,13.71
2018-09-06T03:07:43.789Z,13.70
2018-09-06T03:08:43.766Z,13.63
2018-09-06T03:09:43.742Z,13.63
2018-09-06T03:10:43.721Z,13.67
2018-09-06T03:11:43.697Z,13.67
2018-09-06T03:12:43.674Z,13.57
2018-09-06T03:13:43.650Z,13.59
2018-09-06T03:14:43.629Z,13.59
2018-09-06T03:15:43.604Z,13.57
2018-09-06T03:16:43.581Z,13.54
2018-09-06T03:17:43.560Z,13.45
2018-09-06T03:18:43.536Z,13.36
2018-09-06T03:19:43.513Z,13.36
2018-09-06T03:20:43.492Z,13.45
2018-09-06T03:21:43.468Z,13.46
2018-09-06T03:22:43.444Z,13.45
2018-09-06T03:23:43.426Z,13.52
2018-09-06T03:24:43.398Z,13.62
2018-09-06T03:25:43.374Z,13.62
2018-09-06T03:26:43.351Z,13.57
2018-09-06T03:27:43.328Z,13.55
2018-09-06T03:28:43.306Z,13.60
2018-09-06T03:29:43.282Z,13.49
2018-09-06T03:30:43.261Z,13.54
2018-09-06T03:31:43.235Z,13.62
2018-09-06T03:32:43.213Z,13.64
2018-09-06T03:33:43.190Z,13.64
2018-09-06T03:34:43.166Z,13.59
2018-09-06T03:35:43.143Z,13.70
2018-09-06T03:36:43.119Z,13.66
2018-09-06T03:37:43.098Z,13.66
2018-09-06T03:38:43.073Z,13.60
2018-09-06T03:39:43.049Z,13.69
2018-09-06T03:40:43.027Z,13.66
2018-09-06T03:41:43.004Z,13.70
2018-09-06T03:42:42.983Z,13.75
2018-09-06T03:43:42.957Z,13.67
2018-09-06T03:44:42.934Z,13.81
2018-09-06T03:45:42.912Z,13.78
2018-09-06T03:46:42.889Z,13.70
2018-09-06T03:47:42.864Z,13.62
2018-09-06T03:48:42.840Z,13.59
2018-09-06T03:49:42.819Z,13.55
2018-09-06T03:50:42.796Z,13.51
2018-09-06T03:51:42.773Z,13.44
2018-09-06T03:52:42.748Z,13.44
2018-09-06T03:53:42.728Z,13.38
2018-09-06T03:54:42.702Z,13.33
2018-09-06T03:55:42.681Z,13.36
2018-09-06T03:56:42.653Z,13.33
2018-09-06T03:57:42.632Z,13.26
2018-09-06T03:58:42.608Z,13.28
2018-09-06T03:59:42.583Z,13.29
2018-09-06T04:00:42.561Z,13.28
2018-09-06T04:01:42.539Z,13.29
2018-09-06T04:02:42.515Z,13.29
2018-09-06T04:03:42.492Z,13.36
2018-09-06T04:04:42.468Z,13.42
2018-09-06T04:05:42.444Z,13.45
2018-09-06T04:06:42.425Z,13.46
2018-09-06T04:07:42.396Z,13.32
2018-09-06T04:08:42.376Z,13.36
2018-09-06T04:09:42.352Z,13.36
2018-09-06T04:10:42.328Z,13.32
2018-09-06T04:11:42.305Z,13.48
2018-09-06T04:12:42.281Z,13.46
2018-09-06T04:13:42.260Z,13.54
2018-09-06T04:14:42.235Z,13.52
2018-09-06T04:15:42.210Z,13.54
2018-09-06T04:16:42.189Z,13.52
2018-09-06T04:17:42.165Z,13.55
2018-09-06T04:18:42.141Z,13.52
2018-09-06T04:19:42.117Z,13.42
2018-09-06T04:20:42.093Z,13.39
2018-09-06T04:21:42.071Z,13.33
2018-09-06T04:22:42.048Z,13.26
2018-09-06T04:23:42.023Z,13.26
2018-09-06T04:24:42.001Z,13.28
2018-09-06T04:25:41.977Z,13.29
2018-09-06T04:26:41.954Z,13.29
2018-09-06T04:27:41.929Z,13.20
2018-09-06T04:28:41.907Z,13.20
2018-09-06T04:29:41.882Z,13.04
2018-09-06T04:30:41.859Z,13.03
2018-09-06T04:31:41.837Z,13.05
2018-09-06T04:32:41.813Z,13.00
2018-09-06T04:33:41.789Z,13.03
2018-09-06T04:34:41.767Z,13.08
2018-09-06T04:35:41.743Z,12.97
2018-09-06T04:36:41.721Z,12.93
2018-09-06T04:37:41.698Z,12.96
2018-09-06T04:38:41.678Z,12.89
2018-09-06T04:39:41.648Z,12.92
2018-09-06T04:40:41.637Z,12.90
2018-09-06T04:41:41.602Z,12.90
2018-09-06T04:42:41.579Z,13.07
2018-09-06T04:43:41.570Z,13.19
2018-09-06T04:44:41.532Z,13.32
2018-09-06T04:45:41.509Z,13.32
2018-09-06T04:46:41.485Z,13.33
2018-09-06T04:47:41.462Z,13.39
2018-09-06T04:48:41.438Z,13.38
2018-09-06T04:49:41.415Z,13.36
2018-09-06T04:50:41.392Z,13.44
2018-09-06T04:51:41.370Z,13.51
2018-09-06T04:52:41.345Z,13.46
2018-09-06T04:53:41.321Z,13.52
2018-09-06T04:54:41.298Z,13.55
2018-09-06T04:55:41.275Z,13.51
2018-09-06T04:56:41.251Z,13.42
2018-09-06T04:57:41.228Z,13.54
2018-09-06T04:58:41.204Z,13.55
2018-09-06T04:59:41.179Z,13.59
2018-09-06T05:00:41.158Z,13.59
2018-09-06T05:01:41.134Z,13.71
2018-09-06T05:02:41.125Z,13.67
2018-09-06T05:03:41.089Z,13.77
2018-09-06T05:04:41.064Z,13.78
2018-09-06T05:05:41.041Z,13.78
2018-09-06T05:06:41.017Z,13.70
2018-09-06T05:07:40.993Z,13.81
2018-09-06T05:08:40.969Z,13.87
2018-09-06T05:09:40.945Z,13.92
2018-09-06T05:10:40.922Z,13.96
2018-09-06T05:11:40.897Z,14.07
2018-09-06T05:12:40.876Z,14.07
2018-09-06T05:13:40.854Z,14.21
2018-09-06T05:14:40.829Z,14.28
2018-09-06T05:15:40.805Z,14.24
2018-09-06T05:16:40.782Z,14.35
2018-09-06T05:17:40.766Z,14.51
2018-09-06T05:18:40.738Z,14.40
2018-09-06T05:19:40.713Z,14.42
2018-09-06T05:20:40.689Z,14.43
2018-09-06T05:21:40.667Z,14.57
2018-09-06T05:22:40.644Z,14.64
2018-09-06T05:23:40.619Z,14.62
2018-09-06T05:24:40.597Z,14.64
2018-09-06T05:25:40.575Z,14.62
2018-09-06T05:26:40.556Z,14.65
2018-09-06T05:27:40.528Z,14.69
2018-09-06T05:28:40.507Z,14.72
2018-09-06T05:29:40.483Z,14.70
2018-09-06T05:30:40.470Z,14.70
2018-09-06T05:31:40.438Z,14.69
2018-09-06T05:32:40.416Z,14.72
2018-09-06T05:33:40.392Z,14.83
2018-09-06T05:34:40.370Z,14.83
2018-09-06T05:35:40.346Z,14.89
2018-09-06T05:36:40.327Z,14.96
2018-09-06T05:37:40.300Z,14.88
2018-09-06T05:38:40.279Z,14.94
2018-09-06T05:39:40.258Z,14.95
2018-09-06T05:40:40.234Z,14.96
2018-09-06T05:41:40.211Z,15.06
2018-09-06T05:42:40.188Z,15.06
2018-09-06T05:43:40.165Z,15.03
2018-09-06T05:44:40.144Z,15.13
2018-09-06T05:45:40.121Z,15.16
2018-09-06T05:46:40.099Z,15.14
2018-09-06T05:47:40.076Z,15.07
2018-09-06T05:48:40.055Z,15.17
2018-09-06T05:49:40.032Z,15.23
2018-09-06T05:50:40.011Z,15.23
2018-09-06T05:51:39.996Z,15.17
2018-09-06T05:52:39.965Z,15.19
2018-09-06T05:53:39.943Z,15.21
2018-09-06T05:54:39.925Z,15.31
2018-09-06T05:55:39.897Z,15.21
2018-09-06T05:56:39.880Z,15.25
2018-09-06T05:57:39.855Z,15.32
2018-09-06T05:58:39.832Z,15.36
2018-09-06T05:59:39.890Z,15.38
2018-09-06T06:00:39.786Z,15.34
2018-09-06T06:01:39.765Z,15.39
2018-09-06T06:02:39.744Z,15.43
2018-09-06T06:03:39.721Z,15.47
2018-09-06T06:04:39.697Z,15.49
2018-09-06T06:05:39.676Z,15.47
2018-09-06T06:06:39.654Z,15.46
2018-09-06T06:07:39.631Z,15.47
2018-09-06T06:08:39.610Z,15.50
2018-09-06T06:09:39.589Z,15.50
2018-09-06T06:10:39.567Z,15.47
2018-09-06T06:11:39.605Z,15.54
2018-09-06T06:12:39.522Z,15.60
2018-09-06T06:13:39.501Z,15.65
2018-09-06T06:14:39.479Z,15.65
2018-09-06T06:15:39.454Z,15.67
2018-09-06T06:16:39.433Z,15.71
2018-09-06T06:17:39.413Z,15.71
2018-09-06T06:18:39.390Z,15.72
2018-09-06T06:19:39.369Z,15.71
2018-09-06T06:20:39.344Z,15.86
2018-09-06T06:21:39.322Z,15.69
2018-09-06T06:22:39.302Z,15.71
2018-09-06T06:23:39.278Z,15.83
2018-09-06T06:24:39.257Z,15.82
2018-09-06T06:25:39.234Z,15.83
2018-09-06T06:26:39.214Z,15.86
2018-09-06T06:27:39.191Z,15.89
2018-09-06T06:28:39.170Z,15.90
2018-09-06T06:29:39.146Z,15.93
2018-09-06T06:30:39.124Z,15.92
2018-09-06T06:31:39.103Z,16.01
2018-09-06T06:32:39.082Z,16.07
2018-09-06T06:33:39.061Z,16.21
2018-09-06T06:34:39.037Z,16.17
2018-09-06T06:35:39.015Z,16.17
2018-09-06T06:36:38.994Z,16.28
2018-09-06T06:37:38.972Z,16.34
2018-09-06T06:38:38.949Z,16.35
2018-09-06T06:39:38.928Z,16.39
2018-09-06T06:40:38.908Z,16.41
2018-09-06T06:41:38.886Z,16.56
2018-09-06T06:42:38.864Z,16.56
2018-09-06T06:43:38.842Z,16.61
2018-09-06T06:44:38.819Z,16.61
2018-09-06T06:45:38.798Z,16.63
2018-09-06T06:46:38.777Z,16.73
2018-09-06T06:47:38.756Z,16.83
2018-09-06T06:48:38.736Z,16.88
2018-09-06T06:49:38.712Z,16.89
2018-09-06T06:50:38.691Z,16.94
2018-09-06T06:51:38.702Z,16.81
2018-09-06T06:52:38.648Z,16.82
2018-09-06T06:53:38.643Z,16.93
2018-09-06T06:54:38.606Z,17.16
2018-09-06T06:55:38.585Z,17.18
2018-09-06T06:56:38.564Z,17.12
2018-09-06T06:57:38.542Z,17.07
2018-09-06T06:58:38.534Z,17.16
2018-09-06T06:59:38.500Z,17.37
2018-09-06T07:00:38.480Z,17.49
2018-09-06T07:01:38.459Z,17.72
2018-09-06T07:02:38.437Z,18.10
2018-09-06T07:03:38.416Z,18.44
2018-09-06T07:04:38.472Z,18.69
2018-09-06T07:05:38.375Z,18.80
2018-09-06T07:06:38.360Z,18.90
2018-09-06T07:07:38.333Z,18.76
2018-09-06T07:08:38.312Z,18.65
2018-09-06T07:09:38.294Z,18.45
2018-09-06T07:10:38.272Z,19.29
2018-09-06T07:11:38.251Z,19.44
2018-09-06T07:12:38.231Z,19.04
2018-09-06T07:13:38.210Z,19.71
2018-09-06T07:14:38.189Z,19.47
2018-09-06T07:15:38.169Z,20.03
2018-09-06T07:16:38.151Z,20.70
2018-09-06T07:17:38.131Z,21.09
2018-09-06T07:18:38.216Z,21.59
2018-09-06T07:19:38.090Z,21.54
2018-09-06T07:20:38.070Z,22.03
2018-09-06T07:21:38.050Z,22.60
2018-09-06T07:22:38.035Z,22.49
2018-09-06T07:23:38.014Z,22.37
2018-09-06T07:24:37.996Z,22.95
2018-09-06T07:25:37.976Z,22.82
2018-09-06T07:26:37.959Z,23.15
2018-09-06T07:27:37.939Z,23.09
2018-09-06T07:28:37.927Z,23.09
2018-09-06T07:29:37.905Z,23.35
2018-09-06T07:30:37.954Z,23.20
2018-09-06T07:31:37.872Z,23.32
2018-09-06T07:32:37.851Z,23.70
2018-09-06T07:33:37.835Z,23.84
2018-09-06T07:34:37.818Z,24.12
2018-09-06T07:35:37.801Z,23.94
2018-09-06T07:36:37.787Z,23.88
2018-09-06T07:37:37.768Z,23.60
2018-09-06T07:38:37.752Z,23.66
2018-09-06T07:39:37.734Z,23.69
2018-09-06T07:40:37.717Z,23.80
2018-09-06T07:41:37.701Z,24.06
2018-09-06T07:42:37.685Z,24.05
2018-09-06T07:43:37.668Z,24.35
2018-09-06T07:44:37.652Z,24.15
2018-09-06T07:45:37.638Z,24.40
2018-09-06T07:46:37.623Z,24.68
2018-09-06T07:47:37.608Z,25.15
2018-09-06T07:48:37.588Z,25.06
2018-09-06T07:49:37.572Z,24.64
2018-09-06T07:50:37.557Z,24.35
2018-09-06T07:51:37.539Z,24.16
2018-09-06T07:52:37.525Z,24.35
2018-09-06T07:53:37.510Z,24.65
2018-09-06T07:54:37.499Z,25.02
2018-09-06T07:55:37.478Z,25.08
2018-09-06T07:56:37.462Z,25.17
2018-09-06T07:57:37.446Z,24.76
2018-09-06T07:58:37.430Z,24.99
2018-09-06T07:59:37.418Z,25.24
2018-09-06T08:00:37.400Z,25.45
2018-09-06T08:01:37.387Z,25.88
2018-09-06T08:02:37.370Z,25.85
2018-09-06T08:03:37.354Z,26.06
2018-09-06T08:04:37.340Z,26.02
2018-09-06T08:05:37.324Z,25.76
2018-09-06T08:06:37.310Z,25.76
2018-09-06T08:07:37.293Z,25.54
2018-09-06T08:08:37.293Z,25.50
2018-09-06T08:09:37.270Z,25.76
2018-09-06T08:10:37.248Z,24.39
2018-09-06T08:11:37.233Z,23.17
2018-09-06T08:12:37.219Z,22.80
2018-09-06T08:13:37.203Z,23.09
2018-09-06T08:14:37.189Z,23.58
2018-09-06T08:15:37.171Z,24.09
2018-09-06T08:16:37.157Z,24.18
2018-09-06T08:17:37.144Z,24.55
2018-09-06T08:18:37.125Z,25.10
2018-09-06T08:19:37.109Z,24.96
2018-09-06T08:20:37.093Z,25.13
2018-09-06T08:21:37.078Z,24.35
2018-09-06T08:22:37.063Z,24.18
2018-09-06T08:23:37.046Z,23.94
2018-09-06T08:24:37.032Z,24.58
2018-09-06T08:25:37.015Z,24.93
2018-09-06T08:26:36.999Z,24.80
2018-09-06T08:27:36.983Z,24.58
2018-09-06T08:28:36.968Z,24.69
2018-09-06T08:29:36.952Z,24.45
2018-09-06T08:30:37.039Z,24.80
2018-09-06T08:31:36.922Z,24.32
2018-09-06T08:32:36.909Z,25.23
2018-09-06T08:33:36.889Z,25.76
2018-09-06T08:34:36.874Z,25.57
2018-09-06T08:35:36.866Z,25.65
2018-09-06T08:36:36.846Z,25.67
2018-09-06T08:37:36.826Z,25.92
2018-09-06T08:38:36.811Z,26.32
2018-09-06T08:39:36.797Z,26.63
2018-09-06T08:40:36.784Z,26.26
2018-09-06T08:41:36.766Z,25.77
2018-09-06T08:42:36.751Z,25.72
2018-09-06T08:43:36.735Z,25.85
2018-09-06T08:44:36.719Z,26.54
2018-09-06T08:45:36.704Z,26.70
2018-09-06T08:46:36.690Z,26.25
2018-09-06T08:47:36.760Z,26.15
2018-09-06T08:48:36.661Z,26.06
2018-09-06T08:49:36.645Z,25.88
2018-09-06T08:50:36.630Z,25.90
2018-09-06T08:51:36.615Z,26.26
2018-09-06T08:52:36.601Z,26.26
2018-09-06T08:53:36.586Z,26.23
2018-09-06T08:54:36.571Z,26.39
2018-09-06T08:55:36.556Z,26.67
2018-09-06T08:56:36.543Z,26.75
2018-09-06T08:57:36.527Z,27.13
2018-09-06T08:58:36.548Z,27.28
2018-09-06T08:59:36.497Z,26.63
2018-09-06T09:00:36.483Z,26.39
2018-09-06T09:01:36.469Z,26.70
2018-09-06T09:02:36.477Z,26.44
2018-09-06T09:03:36.441Z,26.18
2018-09-06T09:04:36.445Z,25.77
2018-09-06T09:05:36.418Z,26.17
2018-09-06T09:06:36.397Z,26.76
2018-09-06T09:07:36.397Z,27.10
2018-09-06T09:08:36.369Z,27.70
2018-09-06T09:09:36.355Z,27.65
2018-09-06T09:10:36.340Z,27.57
2018-09-06T09:11:36.329Z,27.28
2018-09-06T09:12:36.422Z,27.81
2018-09-06T09:13:36.297Z,27.50
2018-09-06T09:14:36.284Z,27.69
2018-09-06T09:15:36.269Z,27.97
2018-09-06T09:16:36.254Z,28.09
2018-09-06T09:17:36.241Z,27.93
2018-09-06T09:18:36.227Z,27.78
2018-09-06T09:19:36.212Z,27.66
2018-09-06T09:20:36.200Z,27.87
2018-09-06T09:21:36.234Z,28.15
2018-09-06T09:22:36.173Z,28.14
2018-09-06T09:23:36.159Z,28.02
2018-09-06T09:24:36.145Z,27.87
2018-09-06T09:25:36.200Z,27.82
2018-09-06T09:26:36.120Z,27.47
2018-09-06T09:27:36.103Z,27.49
2018-09-06T09:28:36.089Z,28.02
2018-09-06T09:29:36.076Z,28.19
2018-09-06T09:30:36.135Z,28.24
2018-09-06T09:31:36.048Z,28.07
2018-09-06T09:32:36.037Z,28.15
2018-09-06T09:33:36.027Z,28.25
2018-09-06T09:34:36.009Z,27.97
2018-09-06T09:35:35.993Z,27.88
2018-09-06T09:36:35.980Z,28.46
2018-09-06T09:37:35.967Z,29.04
2018-09-06T09:38:35.953Z,28.86
2018-09-06T09:39:35.941Z,28.39
2018-09-06T09:40:35.927Z,28.19
2018-09-06T09:41:35.913Z,28.64
2018-09-06T09:42:35.902Z,28.83
2018-09-06T09:43:35.888Z,29.06
2018-09-06T09:44:35.873Z,29.53
2018-09-06T09:45:35.861Z,29.94
2018-09-06T09:47:56.523Z,29.43
2018-09-06T09:48:56.510Z,29.28
2018-09-06T09:49:56.494Z,29.21
2018-09-06T09:50:56.481Z,29.19
2018-09-06T09:51:56.472Z,28.76
2018-09-06T09:52:56.460Z,28.14
2018-09-06T09:53:56.445Z,27.88
2018-09-06T09:54:56.430Z,27.50
2018-09-06T09:55:56.415Z,27.17
2018-09-06T09:56:56.462Z,27.00
2018-09-06T09:57:56.391Z,27.24
2018-09-06T09:58:56.386Z,27.36
2018-09-06T09:59:56.363Z,27.32
2018-09-06T10:00:56.350Z,27.49
2018-09-06T10:01:56.336Z,28.06
2018-09-06T10:02:56.323Z,28.37
2018-09-06T10:03:56.309Z,28.78
2018-09-06T10:04:56.296Z,28.77
2018-09-06T10:05:56.287Z,28.96
2018-09-06T10:06:56.267Z,28.83
2018-09-06T10:07:56.259Z,28.37
2018-09-06T10:08:56.242Z,28.51
2018-09-06T10:09:56.228Z,28.44
2018-09-06T10:10:56.215Z,28.24
2018-09-06T10:11:56.201Z,28.09
2018-09-06T10:12:56.188Z,28.39
2018-09-06T10:13:56.175Z,28.93
2018-09-06T10:14:56.160Z,29.60
2018-09-06T10:15:56.147Z,29.41
2018-09-06T10:16:56.134Z,29.21
2018-09-06T10:17:56.121Z,29.06
2018-09-06T10:18:56.106Z,28.78
2018-09-06T10:19:56.093Z,28.51
2018-09-06T10:20:56.080Z,28.31
2018-09-06T10:21:56.071Z,28.58
2018-09-06T10:22:56.052Z,28.39
2018-09-06T10:23:56.041Z,28.78
2018-09-06T10:24:56.029Z,28.27
2018-09-06T10:25:56.014Z,28.74
2018-09-06T10:26:56.000Z,29.09
2018-09-06T10:27:55.987Z,29.06
2018-09-06T10:28:55.973Z,28.22
2018-09-06T10:29:55.959Z,28.11
2018-09-06T10:30:55.944Z,28.43
2018-09-06T10:31:55.931Z,29.14
2018-09-06T10:32:55.918Z,29.09
2018-09-06T10:33:55.906Z,28.73
2018-09-06T10:34:55.890Z,28.52
2018-09-06T10:35:55.878Z,28.39
2018-09-06T10:36:55.864Z,28.25
2018-09-06T10:37:55.852Z,27.96
2018-09-06T10:38:55.839Z,28.07
2018-09-06T10:39:55.842Z,28.49
2018-09-06T10:40:55.818Z,28.86
2018-09-06T10:41:55.796Z,29.02
2018-09-06T10:42:55.782Z,29.36
2018-09-06T10:43:55.770Z,29.24
2018-09-06T10:44:55.757Z,28.95
2018-09-06T10:45:55.742Z,29.28
2018-09-06T10:46:55.733Z,29.45
2018-09-06T10:47:55.723Z,29.67
2018-09-06T10:48:55.701Z,29.78
2018-09-06T10:49:55.688Z,29.78
2018-09-06T10:50:55.674Z,29.61
2018-09-06T10:51:55.668Z,29.89
2018-09-06T10:52:55.653Z,30.19
2018-09-06T10:53:55.637Z,30.00
2018-09-06T10:54:55.620Z,29.78
2018-09-06T10:55:55.614Z,29.05
2018-09-06T10:56:55.594Z,29.33
2018-09-06T10:57:55.584Z,29.27
2018-09-06T10:58:55.566Z,28.90
2018-09-06T10:59:55.553Z,29.12
2018-09-06T11:00:55.540Z,29.11
2018-09-06T11:01:55.527Z,29.16
2018-09-06T11:02:55.513Z,29.41
2018-09-06T11:03:55.502Z,29.92
2018-09-06T11:04:55.486Z,29.78
2018-09-06T11:05:55.474Z,29.68
2018-09-06T11:06:55.458Z,29.60
2018-09-06T11:07:55.505Z,29.36
2018-09-06T11:08:55.431Z,29.57
2018-09-06T11:09:55.417Z,29.89
2018-09-06T11:10:55.404Z,29.60
2018-09-06T11:11:55.393Z,29.27
2018-09-06T11:12:55.376Z,28.88
2018-09-06T11:13:55.365Z,28.71
2018-09-06T11:14:55.375Z,28.86
2018-09-06T11:15:55.336Z,28.95
2018-09-06T11:16:55.323Z,28.96
2018-09-06T11:17:55.357Z,29.33
2018-09-06T11:18:55.296Z,29.36
2018-09-06T11:19:55.282Z,29.74
2018-09-06T11:20:55.305Z,29.90
2018-09-06T11:21:55.361Z,29.78
2018-09-06T11:22:55.243Z,30.01
2018-09-06T11:23:55.225Z,30.45
2018-09-06T11:24:55.213Z,30.62
2018-09-06T11:25:55.198Z,30.32
2018-09-06T11:26:55.186Z,29.71
2018-09-06T11:27:55.197Z,29.02
2018-09-06T11:28:55.158Z,29.15
2018-09-06T11:29:55.146Z,29.58
2018-09-06T11:30:55.129Z,30.00
2018-09-06T11:31:55.119Z,29.57
2018-09-06T11:32:55.104Z,29.79
2018-09-06T11:33:55.090Z,30.39
2018-09-06T11:34:55.076Z,30.51
2018-09-06T11:35:55.062Z,30.22
2018-09-06T11:36:55.049Z,30.22
2018-09-06T11:37:55.035Z,30.08
2018-09-06T11:38:55.020Z,30.58
2018-09-06T11:39:55.019Z,30.46
2018-09-06T11:40:54.994Z,30.88
2018-09-06T11:41:54.981Z,31.41
2018-09-06T11:42:54.966Z,31.12
2018-09-06T11:43:54.953Z,30.76
2018-09-06T11:44:54.939Z,30.97
2018-09-06T11:45:54.927Z,30.83
2018-09-06T11:46:55.005Z,30.65
2018-09-06T11:47:54.931Z,30.02
2018-09-06T11:48:54.887Z,29.58
2018-09-06T11:49:54.901Z,29.23
2018-09-06T11:50:54.859Z,29.76
2018-09-06T11:51:54.845Z,30.27
2018-09-06T11:52:54.833Z,30.24
2018-09-06T11:53:54.820Z,30.84
2018-09-06T11:54:54.803Z,30.73
2018-09-06T11:55:54.792Z,30.89
2018-09-06T11:56:54.778Z,30.64
2018-09-06T11:57:54.767Z,30.08
2018-09-06T11:58:54.751Z,30.84
2018-09-06T11:59:54.736Z,31.32
2018-09-06T12:00:54.722Z,31.38
2018-09-06T12:01:54.715Z,31.13
2018-09-06T12:02:54.699Z,30.80
2018-09-06T12:03:54.683Z,30.34
2018-09-06T12:04:54.669Z,30.49
2018-09-06T12:05:54.657Z,29.45
2018-09-06T12:06:54.647Z,28.48
2018-09-06T12:07:54.674Z,27.81
2018-09-06T12:08:54.618Z,27.14
2018-09-06T12:09:54.604Z,28.03
2018-09-06T12:10:54.588Z,29.27
2018-09-06T12:11:54.576Z,29.49
2018-09-06T12:12:54.565Z,28.73
2018-09-06T12:13:54.650Z,27.96
2018-09-06T12:14:54.532Z,27.62
2018-09-06T12:15:54.518Z,27.25
2018-09-06T12:16:54.505Z,26.99
2018-09-06T12:17:54.490Z,26.84
2018-09-06T12:18:54.476Z,26.65
2018-09-06T12:19:54.462Z,26.69
2018-09-06T12:20:54.451Z,26.47
2018-09-06T12:21:54.433Z,26.44
2018-09-06T12:22:54.421Z,26.48
2018-09-06T12:23:54.402Z,26.33
2018-09-06T12:24:54.388Z,27.50
2018-09-06T12:25:54.374Z,27.34
2018-09-06T12:26:54.358Z,27.10
2018-09-06T12:27:54.343Z,26.99
2018-09-06T12:28:54.332Z,28.11
2018-09-06T12:29:54.314Z,27.74
2018-09-06T12:30:54.298Z,27.32
2018-09-06T12:31:54.286Z,26.84
2018-09-06T12:32:54.268Z,26.70
2018-09-06T12:33:54.255Z,26.67
2018-09-06T12:34:54.238Z,26.72
2018-09-06T12:35:54.222Z,26.81
2018-09-06T12:36:54.206Z,26.84
2018-09-06T12:37:54.192Z,27.03
2018-09-06T12:38:54.175Z,26.82
2018-09-06T12:39:54.161Z,28.07
2018-09-06T12:40:54.149Z,28.73
2018-09-06T12:41:54.131Z,29.43
2018-09-06T12:42:54.113Z,29.90
2018-09-06T12:43:54.101Z,29.95
2018-09-06T12:44:54.085Z,30.26
2018-09-06T12:45:54.070Z,29.41
2018-09-06T12:46:54.056Z,29.49
2018-09-06T12:47:54.040Z,29.27
2018-09-06T12:48:54.026Z,28.48
2018-09-06T12:49:54.011Z,27.92
2018-09-06T12:50:53.997Z,27.72
2018-09-06T12:51:53.982Z,27.17
2018-09-06T12:52:53.968Z,27.03
2018-09-06T12:53:53.952Z,26.75